Terminal Aerodrome Forecast
Issued by NWS Wilmington, OH

Current Version | Previous Version | Text Only | Print | Product List | Glossary Off
Versions: 1 2 3 4 5 6 7 8 9 10 11 12 13 14 15 16 17 18 19 20 21 22 23 24

000
FTUS41 KILN 241700
TAFILN
TAF
KILN 241732Z 2418/2518 24011KT P6SM FEW070 SCT110 BKN250
     FM242300 16009KT P6SM BKN200
     FM251300 21017G27KT P6SM VCSH SCT040 BKN080=

USA.gov is the U.S. government's official web portal to all federal, state and local government web resources and services.